| time (UTC) | temp F | wind direction | speed MPH | gust MPH | rain 1hr in | rain 24hr in | rain mn in | humidity % | barometer mb |
| 20260510190050 | 54 | 79 | 4.0 | 10.0 | 0.00 | 0.00 | 0.00 | 54 | 1014.4 |
| 20260510184551 | 55 | 76 | 4.0 | 10.0 | 0.00 | 0.00 | 0.00 | 52 | 1014.4 |
| 20260510183050 | 55 | 79 | 4.0 | 12.0 | 0.00 | 0.00 | 0.00 | 51 | 1014.4 |
| 20260510181550 | 56 | 71 | 4.0 | 12.0 | 0.00 | 0.00 | 0.00 | 51 | 1014.3 |
| 20260510180050 | 57 | 66 | 3.0 | 11.0 | 0.00 | 0.00 | 0.00 | 49 | 1014.2 |
| 20260510174550 | 57 | 64 | 3.0 | 11.0 | 0.00 | 0.00 | 0.00 | 49 | 1014.3 |
| 20260510173049 | 57 | 76 | 5.0 | 13.0 | 0.00 | 0.00 | 0.00 | 48 | 1014.3 |
| 20260510173002 | 70 | 95 | 2.0 | 10.0 | 0.00 | 0.00 | 0.00 | 44 | 1016.5 |
| 20260510173000 | 70 | 96 | 2.0 | 7.0 | 0.00 | 0.00 | 0.00 | 44 | 1016.5 |
| 20260510172958 | 68 | 99 | 3.0 | 9.0 | 0.00 | 0.00 | 0.00 | 46 | 1016.6 |
| 20260510171549 | 57 | 63 | 2.0 | 14.0 | 0.00 | 0.00 | 0.00 | 50 | 1014.6 |
| 20260510170049 | 58 | 60 | 4.0 | 13.0 | 0.00 | 0.00 | 0.00 | 48 | 1014.8 |
| 20260510164551 | 58 | 88 | 5.0 | 12.0 | 0.00 | 0.00 | 0.00 | 50 | 1014.8 |
| 20260510163051 | 57 | 56 | 4.0 | 13.0 | 0.00 | 0.00 | 0.00 | 50 | 1015.0 |
| 20260510161550 | 58 | 56 | 4.0 | 13.0 | 0.00 | 0.00 | 0.00 | 49 | 1015.1 |
| 20260510160050 | 58 | 79 | 5.0 | 15.0 | 0.00 | 0.00 | 0.00 | 49 | 1015.3 |
| 20260510154550 | 59 | 77 | 5.0 | 15.0 | 0.00 | 0.00 | 0.00 | 50 | 1015.4 |
| 20260510153050 | 58 | 71 | 4.0 | 14.0 | 0.00 | 0.00 | 0.00 | 51 | 1015.5 |
| 20260510151550 | 58 | 71 | 4.0 | 13.0 | 0.00 | 0.00 | 0.00 | 52 | 1015.7 |
| 20260510150051 | 58 | 77 | 6.0 | 15.0 | 0.00 | 0.00 | 0.00 | 51 | 1015.9 |
| 20260510144552 | 58 | 94 | 6.0 | 16.0 | 0.00 | 0.00 | 0.00 | 53 | 1016.0 |
| 20260510143052 | 58 | 84 | 5.0 | 13.0 | 0.00 | 0.00 | 0.00 | 53 | 1016.3 |
| 20260510141551 | 58 | 50 | 4.0 | 14.0 | 0.00 | 0.00 | 0.00 | 54 | 1016.4 |
| 20260510140051 | 58 | 78 | 3.0 | 12.0 | 0.00 | 0.00 | 0.00 | 56 | 1016.5 |
| 20260510134551 | 58 | 83 | 5.0 | 14.0 | 0.00 | 0.00 | 0.00 | 58 | 1016.6 |
| 20260510133051 | 56 | 85 | 7.0 | 18.0 | 0.00 | 0.00 | 0.00 | 59 | 1016.7 |
| 20260510131551 | 56 | 63 | 4.0 | 15.0 | 0.00 | 0.00 | 0.00 | 59 | 1016.8 |
| 20260510130050 | 55 | 62 | 4.0 | 14.0 | 0.00 | 0.00 | 0.00 | 63 | 1016.8 |
| 20260510124550 | 54 | 85 | 8.0 | 18.0 | 0.00 | 0.00 | 0.00 | 63 | 1017.0 |
| 20260510123050 | 54 | 54 | 4.0 | 14.0 | 0.00 | 0.00 | 0.00 | 65 | 1017.2 |
| 20260510121552 | 54 | 73 | 4.0 | 14.0 | 0.00 | 0.00 | 0.00 | 66 | 1017.4 |
| 20260510120052 | 53 | 65 | 4.0 | 12.0 | 0.00 | 0.00 | 0.00 | 68 | 1017.5 |
| 20260510114552 | 53 | 45 | 4.0 | 12.0 | 0.00 | 0.00 | 0.00 | 69 | 1017.7 |
| 20260510113051 | 53 | 42 | 3.0 | 14.0 | 0.00 | 0.00 | 0.00 | 70 | 1017.7 |
| 20260510111551 | 54 | 59 | 5.0 | 15.0 | 0.00 | 0.00 | 0.00 | 68 | 1018.0 |
| 20260510110051 | 54 | 70 | 7.0 | 15.0 | 0.00 | 0.00 | 0.00 | 70 | 1018.2 |
| 20260510104548 | 53 | 49 | 4.0 | 12.0 | 0.00 | 0.00 | 0.00 | 72 | 1018.2 |
| 20260510103048 | 52 | 50 | 3.0 | 11.0 | 0.00 | 0.00 | 0.00 | 73 | 1018.4 |
| 20260510101548 | 51 | 52 | 4.0 | 13.0 | 0.00 | 0.00 | 0.00 | 75 | 1018.5 |
| 20260510100048 | 51 | 53 | 2.0 | 11.0 | 0.00 | 0.00 | 0.00 | 75 | 1018.5 |
| 20260510094547 | 50 | 51 | 4.0 | 14.0 | 0.00 | 0.00 | 0.00 | 77 | 1018.6 |
| 20260510093047 | 50 | 49 | 5.0 | 13.0 | 0.00 | 0.00 | 0.00 | 78 | 1018.6 |
| 20260510091549 | 50 | 57 | 2.0 | 11.0 | 0.00 | 0.00 | 0.00 | 79 | 1018.8 |
| 20260510090049 | 49 | 59 | 4.0 | 12.0 | 0.00 | 0.00 | 0.00 | 79 | 1018.8 |
| 20260510084549 | 49 | 61 | 5.0 | 14.0 | 0.00 | 0.00 | 0.00 | 79 | 1018.8 |
| 20260510083048 | 49 | 65 | 5.0 | 14.0 | 0.00 | 0.00 | 0.00 | 80 | 1018.9 |
| 20260510081548 | 49 | 54 | 4.0 | 12.0 | 0.00 | 0.00 | 0.00 | 82 | 1018.9 |
| 20260510080048 | 48 | 55 | 5.0 | 14.0 | 0.00 | 0.00 | 0.00 | 82 | 1018.9 |
| 20260510074548 | 49 | 51 | 3.0 | 12.0 | 0.00 | 0.00 | 0.00 | 82 | 1018.8 |
| 20260510073048 | 49 | 63 | 3.0 | 12.0 | 0.00 | 0.00 | 0.00 | 82 | 1018.8 |
| 20260510071547 | 49 | 62 | 4.0 | 13.0 | 0.00 | 0.00 | 0.00 | 82 | 1018.9 |
| 20260510070047 | 49 | 49 | 2.0 | 6.0 | 0.00 | 0.00 | 0.00 | 82 | 1018.8 |
| 20260510064548 | 49 | 50 | 3.0 | 11.0 | 0.00 | 0.00 | 0.00 | 82 | 1018.7 |
| 20260510063050 | 49 | 56 | 3.0 | 12.0 | 0.00 | 0.00 | 0.00 | 84 | 1018.6 |
| 20260510061550 | 49 | 49 | 3.0 | 11.0 | 0.00 | 0.00 | 0.00 | 84 | 1018.5 |
| 20260510060051 | 49 | 30 | 2.0 | 10.0 | 0.00 | 0.00 | 0.00 | 84 | 1018.5 |
| 20260510054551 | 49 | 35 | 2.0 | 10.0 | 0.00 | 0.00 | 0.00 | 84 | 1018.3 |
| 20260510053049 | 49 | 36 | 2.0 | 14.0 | 0.00 | 0.00 | 0.00 | 83 | 1018.4 |
| 20260510051548 | 49 | 50 | 3.0 | 10.0 | 0.00 | 0.00 | 0.00 | 83 | 1018.4 |
| 20260510050050 | 50 | 56 | 2.0 | 7.0 | 0.00 | 0.00 | 0.00 | 83 | 1018.4 |
| 20260510044550 | 50 | 54 | 2.0 | 9.0 | 0.00 | 0.00 | 0.00 | 83 | 1018.5 |
| 20260510043050 | 49 | 47 | 2.0 | 9.0 | 0.00 | 0.00 | 0.00 | 83 | 1018.5 |
| 20260510041549 | 49 | 61 | 3.0 | 12.0 | 0.00 | 0.00 | 0.00 | 83 | 1018.5 |
| 20260510040049 | 49 | 49 | 2.0 | 9.0 | 0.00 | 0.00 | 0.00 | 84 | 1018.7 |
| 20260510034549 | 49 | 45 | 2.0 | 9.0 | 0.00 | 0.00 | 0.00 | 84 | 1018.6 |
| 20260510033049 | 49 | 45 | 2.0 | 9.0 | 0.00 | 0.00 | 0.00 | 84 | 1018.8 |
| 20260510031549 | 49 | 52 | 2.0 | 11.0 | 0.00 | 0.00 | 0.00 | 84 | 1019.0 |
| 20260510030048 | 49 | 58 | 2.0 | 10.0 | 0.00 | 0.00 | 0.00 | 84 | 1018.9 |
| 20260510024551 | 49 | 66 | 2.0 | 10.0 | 0.00 | 0.00 | 0.00 | 84 | 1019.0 |
| 20260510023051 | 49 | 55 | 3.0 | 9.0 | 0.00 | 0.00 | 0.00 | 83 | 1019.0 |
| 20260510021551 | 49 | 61 | 4.0 | 13.0 | 0.00 | 0.00 | 0.00 | 83 | 1019.0 |
| 20260510020051 | 49 | 68 | 4.0 | 14.0 | 0.00 | 0.00 | 0.00 | 82 | 1019.0 |
| 20260510014550 | 49 | 91 | 7.0 | 17.0 | 0.00 | 0.00 | 0.00 | 82 | 1018.9 |
| 20260510013050 | 49 | 79 | 8.0 | 16.0 | 0.00 | 0.00 | 0.00 | 83 | 1018.9 |
| 20260510011935 | 49 | 68 | 6.0 | 17.0 | 0.00 | 0.00 | 0.00 | 83 | 1018.9 |
| 20260510011550 | 49 | 68 | 6.0 | 17.0 | 0.00 | 0.00 | 0.00 | 83 | 1018.9 |
| 20260510010052 | 49 | 59 | 5.0 | 14.0 | 0.00 | 0.00 | 0.00 | 83 | 1019.3 |
| 20260510004552 | 49 | 59 | 5.0 | 15.0 | 0.00 | 0.00 | 0.00 | 84 | 1019.1 |
| 20260510003845 | 50 | 65 | 3.0 | 14.0 | 0.00 | 0.00 | 0.00 | 85 | 1019.1 |
| 20260510003051 | 50 | 65 | 3.0 | 14.0 | 0.00 | 0.00 | 0.00 | 85 | 1019.1 |
| 20260510001551 | 50 | 37 | 3.0 | 12.0 | 0.00 | 0.00 | 0.00 | 85 | 1018.8 |
| 20260510000051 | 50 | 54 | 3.0 | 13.0 | 0.00 | 0.00 | 0.00 | 84 | 1018.7 |
| 20260509234551 | 51 | 54 | 4.0 | 13.0 | 0.00 | 0.00 | 0.00 | 84 | 1018.5 |
| 20260509233051 | 51 | 62 | 5.0 | 13.0 | 0.00 | 0.00 | 0.00 | 83 | 1018.6 |
| 20260509231827 | 51 | 70 | 5.0 | 15.0 | 0.00 | 0.00 | 0.00 | 83 | 1018.7 |
| 20260509231550 | 51 | 70 | 5.0 | 15.0 | 0.00 | 0.00 | 0.00 | 83 | 1018.7 |
| 20260509230050 | 52 | 58 | 5.0 | 15.0 | 0.00 | 0.00 | 0.00 | 82 | 1018.6 |
| 20260509224552 | 52 | 51 | 4.0 | 13.0 | 0.00 | 0.00 | 0.00 | 81 | 1018.6 |
| 20260509223052 | 53 | 17 | 2.0 | 13.0 | 0.00 | 0.00 | 0.00 | 79 | 1018.6 |
| 20260509221552 | 53 | 350 | 2.0 | 10.0 | 0.00 | 0.00 | 0.00 | 79 | 1018.7 |
| 20260509220052 | 54 | 353 | 3.0 | 14.0 | 0.00 | 0.00 | 0.00 | 78 | 1018.5 |
| 20260509214552 | 54 | 3 | 3.0 | 11.0 | 0.00 | 0.00 | 0.00 | 77 | 1018.4 |
| 20260509213051 | 55 | 22 | 1.0 | 7.0 | 0.00 | 0.00 | 0.00 | 77 | 1018.1 |
| 20260509211551 | 56 | 45 | 3.0 | 13.0 | 0.00 | 0.00 | 0.00 | 75 | 1017.8 |
| 20260509210053 | 57 | 37 | 1.0 | 7.0 | 0.00 | 0.00 | 0.00 | 76 | 1017.5 |
| 20260509204553 | 58 | 43 | 3.0 | 11.0 | 0.00 | 0.00 | 0.00 | 75 | 1017.5 |
| 20260509203053 | 58 | 52 | 2.0 | 9.0 | 0.00 | 0.00 | 0.00 | 74 | 1017.3 |
| 20260509201552 | 59 | 61 | 4.0 | 17.0 | 0.00 | 0.00 | 0.00 | 72 | 1017.1 |
| 20260509200052 | 60 | 53 | 4.0 | 16.0 | 0.00 | 0.00 | 0.00 | 71 | 1017.0 |
| 20260509194552 | 62 | 72 | 2.0 | 10.0 | 0.00 | 0.00 | 0.00 | 60 | 1016.8 |
| 20260509193052 | 63 | 74 | 0.0 | 5.0 | 0.00 | 0.00 | 0.00 | 53 | 1016.5 |
| 20260509191553 | 64 | 74 | 1.0 | 8.0 | 0.00 | 0.00 | 0.00 | 51 | 1016.4 |